createdAt,value
2019-03-21T00:01:19.137Z,100.00
2019-03-21T00:03:49.303Z,100.00
2019-03-21T00:06:17.613Z,100.00
2019-03-21T00:08:47.272Z,100.00
2019-03-21T00:11:38.331Z,100.00
2019-03-21T00:14:09.818Z,100.00
2019-03-21T00:16:38.202Z,100.00
2019-03-21T00:19:06.522Z,100.00
2019-03-21T00:21:34.894Z,100.00
2019-03-21T00:24:03.205Z,100.00
2019-03-21T00:26:31.885Z,100.00
2019-03-21T00:29:00.176Z,100.00
2019-03-21T00:31:28.504Z,100.00
2019-03-21T00:33:57.670Z,100.00
2019-03-21T00:36:26.072Z,100.00
2019-03-21T00:38:54.378Z,100.00
2019-03-21T00:41:22.684Z,100.00
2019-03-21T00:43:51.464Z,100.00
2019-03-21T00:46:20.156Z,100.00
2019-03-21T00:48:48.486Z,100.00
2019-03-21T00:51:16.782Z,100.00
2019-03-21T00:53:45.116Z,100.00
2019-03-21T00:56:13.780Z,100.00
2019-03-21T00:58:42.285Z,100.00
2019-03-21T01:01:11.057Z,100.00
2019-03-21T01:03:39.422Z,100.00
2019-03-21T01:06:07.742Z,100.00
2019-03-21T01:08:36.049Z,100.00
2019-03-21T01:11:04.393Z,100.00
2019-03-21T01:13:35.643Z,100.00
2019-03-21T01:16:04.102Z,100.00
2019-03-21T01:18:33.965Z,100.00
2019-03-21T01:21:02.269Z,100.00
2019-03-21T01:23:30.898Z,100.00
2019-03-21T01:26:05.835Z,100.00
2019-03-21T01:28:34.159Z,100.00
2019-03-21T01:31:02.470Z,100.00
2019-03-21T01:33:31.181Z,100.00
2019-03-21T01:35:59.557Z,100.00
2019-03-21T01:38:27.903Z,100.00
2019-03-21T01:41:02.044Z,100.00
2019-03-21T01:43:30.652Z,100.00
2019-03-21T01:45:59.427Z,100.00
2019-03-21T01:48:27.681Z,100.00
2019-03-21T01:50:56.004Z,100.00
2019-03-21T01:53:24.308Z,100.00
2019-03-21T01:55:52.638Z,100.00
2019-03-21T01:58:20.940Z,100.00
2019-03-21T02:00:55.150Z,100.00
2019-03-21T02:03:23.504Z,100.00
2019-03-21T02:05:51.820Z,100.00
2019-03-21T02:08:20.143Z,100.00
2019-03-21T02:10:48.466Z,100.00
2019-03-21T02:13:16.827Z,100.00
2019-03-21T02:15:46.477Z,100.00
2019-03-21T02:18:15.199Z,100.00
2019-03-21T02:20:43.851Z,100.00
2019-03-21T02:23:12.245Z,100.00
2019-03-21T02:25:45.717Z,100.00
2019-03-21T02:28:14.046Z,100.00
2019-03-21T02:30:45.529Z,100.00
2019-03-21T02:33:20.420Z,100.00
2019-03-21T02:35:48.793Z,100.00
2019-03-21T02:38:17.097Z,100.00
2019-03-21T02:40:46.777Z,100.00
2019-03-21T02:43:15.534Z,100.00
2019-03-21T02:45:44.163Z,100.00
2019-03-21T02:48:12.919Z,100.00
2019-03-21T02:50:43.690Z,100.00
2019-03-21T02:53:12.373Z,100.00
2019-03-21T02:55:40.782Z,100.00
2019-03-21T02:58:09.158Z,100.00
2019-03-21T03:00:39.681Z,100.00
2019-03-21T03:03:08.549Z,100.00
2019-03-21T03:05:38.003Z,100.00
2019-03-21T03:08:07.858Z,100.00
2019-03-21T03:10:44.805Z,100.00
2019-03-21T03:13:13.199Z,100.00
2019-03-21T03:15:42.541Z,100.00
2019-03-21T03:18:13.974Z,100.00
2019-03-21T03:20:42.607Z,100.00
2019-03-21T03:23:10.997Z,100.00
2019-03-21T03:25:39.301Z,100.00
2019-03-21T03:28:25.591Z,100.00
2019-03-21T03:30:56.245Z,100.00
2019-03-21T03:33:24.585Z,100.00
2019-03-21T03:35:52.987Z,100.00
2019-03-21T03:38:21.349Z,100.00
2019-03-21T03:40:53.116Z,100.00
2019-03-21T03:43:21.426Z,100.00
2019-03-21T03:45:50.074Z,100.00
2019-03-21T03:48:19.923Z,100.00
2019-03-21T03:50:48.437Z,100.00
2019-03-21T03:53:16.878Z,100.00
2019-03-21T03:55:45.261Z,100.00
2019-03-21T03:58:31.122Z,100.00
2019-03-21T04:00:59.679Z,100.00
2019-03-21T04:03:28.998Z,100.00
2019-03-21T04:05:57.566Z,100.00
2019-03-21T04:08:25.963Z,100.00
2019-03-21T04:10:56.437Z,100.00
2019-03-21T04:13:24.759Z,100.00
2019-03-21T04:15:54.110Z,100.00
2019-03-21T04:18:24.948Z,100.00
2019-03-21T04:20:59.183Z,100.00
2019-03-21T04:23:27.493Z,100.00
2019-03-21T04:26:02.270Z,100.00
2019-03-21T04:28:30.803Z,100.00
2019-03-21T04:30:59.204Z,100.00
2019-03-21T04:33:27.822Z,100.00
2019-03-21T04:35:56.165Z,100.00
2019-03-21T04:38:25.249Z,100.00
2019-03-21T04:40:53.778Z,100.00
2019-03-21T04:43:22.889Z,100.00
2019-03-21T04:46:02.591Z,100.00
2019-03-21T04:48:21.398Z,100.00
2019-03-21T04:50:49.811Z,100.00
2019-03-21T04:53:18.110Z,100.00
2019-03-21T04:55:46.419Z,100.00
2019-03-21T04:58:14.750Z,100.00
2019-03-21T05:00:51.080Z,100.00
2019-03-21T05:03:24.993Z,100.00
2019-03-21T05:05:53.304Z,100.00
2019-03-21T05:08:21.612Z,100.00
2019-03-21T05:10:49.941Z,100.00
2019-03-21T05:13:18.253Z,100.00
2019-03-21T05:15:49.092Z,100.00
2019-03-21T05:18:32.808Z,100.00
2019-03-21T05:21:04.008Z,100.00
2019-03-21T05:23:32.627Z,100.00
2019-03-21T05:26:00.951Z,100.00
2019-03-21T05:28:29.296Z,100.00
2019-03-21T05:31:22.167Z,100.00
2019-03-21T05:33:50.496Z,100.00
2019-03-21T05:36:18.797Z,100.00
2019-03-21T05:38:47.152Z,100.00
2019-03-21T05:41:15.477Z,100.00
2019-03-21T05:43:47.312Z,100.00
2019-03-21T05:46:25.965Z,100.00
2019-03-21T05:48:46.683Z,100.00
2019-03-21T05:51:15.005Z,100.00
2019-03-21T05:53:43.358Z,100.00
2019-03-21T05:56:11.746Z,100.00
2019-03-21T05:58:40.056Z,100.00
2019-03-21T06:01:13.413Z,100.00
2019-03-21T06:03:48.232Z,100.00
2019-03-21T06:06:19.722Z,100.00
2019-03-21T06:08:48.027Z,100.00
2019-03-21T06:11:16.410Z,100.00
2019-03-21T06:13:45.122Z,100.00
2019-03-21T06:16:13.435Z,100.00
2019-03-21T06:18:56.898Z,100.00
2019-03-21T06:21:40.457Z,100.00
2019-03-21T06:24:39.274Z,100.00
2019-03-21T06:27:29.299Z,100.00
2019-03-21T06:29:58.038Z,100.00
2019-03-21T06:32:27.403Z,100.00
2019-03-21T06:34:56.667Z,100.00
2019-03-21T06:37:28.472Z,100.00
2019-03-21T06:39:56.217Z,100.00
2019-03-21T06:42:24.681Z,100.00
2019-03-21T06:44:53.054Z,100.00
2019-03-21T06:47:21.532Z,100.00
2019-03-21T06:49:49.836Z,100.00
2019-03-21T06:52:18.418Z,100.00
2019-03-21T06:54:46.727Z,100.00
2019-03-21T06:57:17.236Z,100.00
2019-03-21T06:59:45.906Z,100.00
2019-03-21T07:02:14.303Z,100.00
2019-03-21T07:04:42.671Z,100.00
2019-03-21T07:07:10.975Z,100.00
2019-03-21T07:09:39.368Z,100.00
2019-03-21T07:12:07.743Z,100.00
2019-03-21T07:14:36.066Z,100.00
2019-03-21T07:17:04.374Z,100.00
2019-03-21T07:19:32.724Z,100.00
2019-03-21T07:22:01.328Z,100.00
2019-03-21T07:24:29.820Z,100.00
2019-03-21T07:26:58.136Z,100.00
2019-03-21T07:29:26.509Z,100.00
2019-03-21T07:31:54.836Z,100.00
2019-03-21T07:34:23.143Z,100.00
2019-03-21T07:36:51.436Z,100.00
2019-03-21T07:39:19.825Z,100.00
2019-03-21T07:41:48.129Z,100.00
2019-03-21T07:44:16.443Z,100.00
2019-03-21T07:46:44.746Z,100.00
2019-03-21T07:49:13.068Z,100.00
2019-03-21T07:51:41.375Z,100.00
2019-03-21T07:54:09.688Z,100.00
2019-03-21T07:56:37.998Z,100.00
2019-03-21T07:59:06.636Z,98.60
2019-03-21T08:01:35.024Z,98.30
2019-03-21T08:04:03.732Z,95.57
2019-03-21T08:06:32.399Z,96.14
2019-03-21T08:09:00.696Z,95.81
2019-03-21T08:11:29.018Z,96.94
2019-03-21T08:13:57.317Z,93.97
2019-03-21T08:16:25.632Z,94.44
2019-03-21T08:18:53.936Z,93.84
2019-03-21T08:21:22.270Z,93.16
2019-03-21T08:23:50.569Z,91.06
2019-03-21T08:26:18.872Z,92.84
2019-03-21T08:28:47.262Z,92.87
2019-03-21T08:31:15.932Z,91.86
2019-03-21T08:33:44.618Z,91.97
2019-03-21T08:36:12.984Z,91.18
2019-03-21T08:38:41.376Z,89.36
2019-03-21T08:41:09.752Z,87.67
2019-03-21T08:43:38.071Z,85.84
2019-03-21T08:46:06.529Z,88.19
2019-03-21T08:48:34.870Z,88.72
2019-03-21T08:51:08.285Z,88.78
2019-03-21T08:53:33.496Z,86.38
2019-03-21T08:56:01.981Z,84.74
2019-03-21T08:58:30.275Z,84.08
2019-03-21T09:00:58.599Z,78.99
2019-03-21T09:03:26.908Z,77.94
2019-03-21T09:05:55.416Z,76.09
2019-03-21T09:08:24.085Z,74.53
2019-03-21T09:10:52.402Z,70.33
2019-03-21T09:13:20.709Z,71.97
2019-03-21T09:15:49.029Z,69.82
2019-03-21T09:18:17.318Z,70.45
2019-03-21T09:20:45.701Z,70.08
2019-03-21T09:23:14.150Z,66.55
2019-03-21T09:25:42.481Z,74.08
2019-03-21T09:28:10.779Z,67.88
2019-03-21T09:30:39.525Z,66.23
2019-03-21T09:33:07.848Z,62.11
2019-03-21T09:35:36.146Z,60.41
2019-03-21T09:38:04.778Z,60.19
2019-03-21T09:40:33.083Z,60.69
2019-03-21T09:43:03.188Z,57.36
2019-03-21T09:45:31.756Z,57.15
2019-03-21T09:48:00.091Z,56.38
2019-03-21T09:50:30.347Z,58.73
2019-03-21T09:52:59.211Z,56.63
2019-03-21T09:55:27.478Z,57.79
2019-03-21T09:57:55.780Z,57.08
2019-03-21T10:00:35.343Z,56.54
2019-03-21T10:03:04.692Z,56.49
2019-03-21T10:05:33.458Z,54.43
2019-03-21T10:08:02.316Z,54.43
2019-03-21T10:10:34.603Z,53.73
2019-03-21T10:13:03.182Z,52.82
2019-03-21T10:15:31.911Z,53.19
2019-03-21T10:18:00.212Z,51.56
2019-03-21T10:20:28.583Z,51.58
2019-03-21T10:22:56.989Z,50.28
2019-03-21T10:25:26.757Z,50.72
2019-03-21T10:27:55.655Z,49.23
2019-03-21T10:30:29.829Z,50.96
2019-03-21T10:32:58.139Z,49.87
2019-03-21T10:35:26.459Z,49.10
2019-03-21T10:37:54.770Z,49.89
2019-03-21T10:40:23.095Z,50.74
2019-03-21T10:42:51.396Z,49.82
2019-03-21T10:45:19.698Z,50.11
2019-03-21T10:47:48.163Z,48.59
2019-03-21T10:50:29.013Z,49.34
2019-03-21T10:52:58.080Z,48.76
2019-03-21T10:55:26.383Z,48.49
2019-03-21T10:57:54.972Z,47.87
2019-03-21T11:00:23.567Z,47.57
2019-03-21T11:02:52.244Z,44.73
2019-03-21T11:05:23.105Z,46.61
2019-03-21T11:07:50.589Z,45.18
2019-03-21T11:10:18.909Z,44.73
2019-03-21T11:12:47.207Z,43.88
2019-03-21T11:15:15.599Z,43.89
2019-03-21T11:17:43.984Z,42.81
2019-03-21T11:20:18.091Z,43.99
2019-03-21T11:22:46.396Z,42.98
2019-03-21T11:25:14.695Z,42.88
2019-03-21T11:27:43.009Z,41.49
2019-03-21T11:30:16.227Z,41.01
2019-03-21T11:32:44.906Z,39.15
2019-03-21T11:35:13.206Z,39.69
2019-03-21T11:37:41.540Z,39.54
2019-03-21T11:40:09.903Z,40.48
2019-03-21T11:42:38.277Z,40.87
2019-03-21T11:45:09.592Z,37.34
2019-03-21T11:47:42.032Z,37.75
2019-03-21T11:50:09.111Z,37.71
2019-03-21T11:52:37.417Z,37.73
2019-03-21T11:55:07.659Z,37.29
2019-03-21T11:57:35.957Z,38.95
2019-03-21T12:00:10.859Z,37.17
2019-03-21T12:02:39.160Z,36.07
2019-03-21T12:05:08.196Z,36.43
2019-03-21T12:07:36.511Z,34.45
2019-03-21T12:10:07.151Z,33.55
2019-03-21T12:12:35.470Z,36.36
2019-03-21T12:15:06.615Z,34.08
2019-03-21T12:17:35.241Z,31.25
2019-03-21T12:20:08.266Z,30.71
2019-03-21T12:22:36.574Z,33.17
2019-03-21T12:25:06.884Z,32.61
2019-03-21T12:27:35.268Z,30.77
2019-03-21T12:30:08.937Z,30.94
2019-03-21T12:32:37.237Z,31.69
2019-03-21T12:35:07.836Z,31.54
2019-03-21T12:37:36.210Z,30.56
2019-03-21T12:40:07.977Z,33.92
2019-03-21T12:42:36.722Z,28.67
2019-03-21T12:45:09.961Z,29.92
2019-03-21T12:47:38.261Z,27.32
2019-03-21T12:50:08.627Z,29.05
2019-03-21T12:52:41.608Z,29.96
2019-03-21T12:55:07.720Z,31.12
2019-03-21T12:57:36.022Z,31.07
2019-03-21T13:00:06.434Z,28.51
2019-03-21T13:02:34.806Z,30.88
2019-03-21T13:05:04.382Z,27.56
2019-03-21T13:07:32.693Z,29.12
2019-03-21T13:10:00.986Z,30.42
2019-03-21T13:12:29.289Z,27.53
2019-03-21T13:14:57.679Z,28.28
2019-03-21T13:17:26.051Z,27.90
2019-03-21T13:19:54.380Z,26.36
2019-03-21T13:22:22.674Z,27.32
2019-03-21T13:24:50.991Z,27.28
2019-03-21T13:27:19.293Z,27.50
2019-03-21T13:29:47.590Z,27.07
2019-03-21T13:32:15.906Z,27.50
2019-03-21T13:34:44.200Z,26.49
2019-03-21T13:37:12.511Z,26.57
2019-03-21T13:39:40.808Z,26.87
2019-03-21T13:42:09.152Z,26.71
2019-03-21T13:44:37.455Z,25.55
2019-03-21T13:47:06.159Z,26.45
2019-03-21T13:49:34.537Z,25.68
2019-03-21T13:52:04.815Z,25.70
2019-03-21T13:54:32.865Z,24.61
2019-03-21T13:57:01.530Z,24.83
2019-03-21T13:59:29.927Z,24.24
2019-03-21T14:01:58.223Z,24.24
2019-03-21T14:04:26.879Z,23.26
2019-03-21T14:06:55.173Z,24.77
2019-03-21T14:09:23.510Z,24.77
2019-03-21T14:11:52.116Z,25.37
2019-03-21T14:14:20.716Z,24.36
2019-03-21T14:16:50.954Z,23.67
2019-03-21T14:19:19.423Z,22.74
2019-03-21T14:21:47.745Z,22.58
2019-03-21T14:24:16.176Z,22.94
2019-03-21T14:26:44.503Z,22.04
2019-03-21T14:29:13.154Z,24.21
2019-03-21T14:31:41.649Z,25.61
2019-03-21T14:34:10.332Z,23.95
2019-03-21T14:36:38.641Z,23.39
2019-03-21T14:39:07.905Z,22.01
2019-03-21T14:41:36.235Z,25.24
2019-03-21T14:44:07.044Z,24.51
2019-03-21T14:46:34.699Z,25.76
2019-03-21T14:49:03.098Z,24.85
2019-03-21T14:51:31.384Z,23.66
2019-03-21T14:53:59.765Z,22.72
2019-03-21T14:56:28.211Z,22.18
2019-03-21T14:58:56.533Z,23.89
2019-03-21T15:01:24.842Z,23.98
2019-03-21T15:03:53.340Z,23.87
2019-03-21T15:06:21.647Z,21.94
2019-03-21T15:08:50.230Z,23.98
2019-03-21T15:11:18.925Z,23.42
2019-03-21T15:13:47.295Z,22.55
2019-03-21T15:16:15.991Z,21.95
2019-03-21T15:18:44.289Z,22.14
2019-03-21T15:21:12.584Z,22.38
2019-03-21T15:23:41.228Z,22.97
2019-03-21T15:26:09.571Z,22.92
2019-03-21T15:28:38.312Z,22.07
2019-03-21T15:31:06.607Z,22.04
2019-03-21T15:33:34.922Z,22.54
2019-03-21T15:36:03.220Z,23.05
2019-03-21T15:38:31.837Z,23.52
2019-03-21T15:41:02.580Z,22.96
2019-03-21T15:43:31.267Z,24.69
2019-03-21T15:45:59.951Z,23.72
2019-03-21T15:48:28.259Z,25.92
2019-03-21T15:51:04.295Z,24.88
2019-03-21T15:53:26.593Z,25.99
2019-03-21T15:55:54.903Z,27.77
2019-03-21T15:58:23.203Z,28.12
2019-03-21T16:00:51.589Z,27.05
2019-03-21T16:03:19.886Z,26.75
2019-03-21T16:05:48.183Z,26.87
2019-03-21T16:08:16.501Z,28.03
2019-03-21T16:10:44.898Z,27.48
2019-03-21T16:13:13.586Z,28.05
2019-03-21T16:15:41.883Z,30.22
2019-03-21T16:18:10.196Z,29.46
2019-03-21T16:20:38.578Z,30.45
2019-03-21T16:23:07.313Z,30.25
2019-03-21T16:25:36.004Z,31.64
2019-03-21T16:28:04.369Z,31.57
2019-03-21T16:30:32.669Z,31.56
2019-03-21T16:33:00.990Z,31.79
2019-03-21T16:35:29.631Z,32.36
2019-03-21T16:37:57.955Z,32.23
2019-03-21T16:40:26.255Z,32.78
2019-03-21T16:42:54.558Z,33.08
2019-03-21T16:45:22.872Z,34.29
2019-03-21T16:47:51.175Z,33.23
2019-03-21T16:50:19.965Z,34.04
2019-03-21T16:52:48.262Z,35.35
2019-03-21T16:55:16.685Z,36.75
2019-03-21T16:57:45.060Z,35.81
2019-03-21T17:00:20.614Z,36.25
2019-03-21T17:02:49.616Z,36.05
2019-03-21T17:05:18.309Z,36.00
2019-03-21T17:07:46.692Z,37.53
2019-03-21T17:10:16.758Z,37.73
2019-03-21T17:12:45.108Z,38.16
2019-03-21T17:15:14.084Z,39.29
2019-03-21T17:17:42.783Z,39.69
2019-03-21T17:20:12.312Z,40.07
2019-03-21T17:22:40.650Z,41.04
2019-03-21T17:25:09.680Z,40.90
2019-03-21T17:27:38.053Z,41.29
2019-03-21T17:30:09.501Z,41.55
2019-03-21T17:32:37.767Z,41.58
2019-03-21T17:35:07.074Z,42.22
2019-03-21T17:37:35.653Z,43.18
2019-03-21T17:40:06.724Z,43.09
2019-03-21T17:42:35.059Z,42.87
2019-03-21T17:45:04.839Z,42.92
2019-03-21T17:47:33.699Z,43.63
2019-03-21T17:50:02.091Z,44.11
2019-03-21T17:52:30.489Z,44.44
2019-03-21T17:54:59.151Z,44.95
2019-03-21T17:57:34.282Z,45.22
2019-03-21T17:59:57.520Z,45.29
2019-03-21T18:02:25.915Z,46.00
2019-03-21T18:04:54.678Z,47.25
2019-03-21T18:07:23.531Z,46.25
2019-03-21T18:09:51.823Z,46.37
2019-03-21T18:12:20.135Z,47.58
2019-03-21T18:14:48.768Z,47.54
2019-03-21T18:17:17.073Z,48.02
2019-03-21T18:19:45.392Z,47.87
2019-03-21T18:22:13.763Z,48.58
2019-03-21T18:24:53.251Z,48.24
2019-03-21T18:27:12.247Z,48.23
2019-03-21T18:29:40.571Z,48.57
2019-03-21T18:32:08.872Z,48.63
2019-03-21T18:34:37.213Z,48.71
2019-03-21T18:37:05.992Z,48.83
2019-03-21T18:39:34.375Z,48.97
2019-03-21T18:42:02.693Z,48.84
2019-03-21T18:44:30.997Z,50.22
2019-03-21T18:46:59.322Z,50.43
2019-03-21T18:49:27.631Z,50.23
2019-03-21T18:51:56.147Z,50.75
2019-03-21T18:54:24.538Z,51.57
2019-03-21T18:56:53.007Z,52.25
2019-03-21T18:59:21.313Z,52.91
2019-03-21T19:01:58.581Z,53.53
2019-03-21T19:04:20.317Z,53.10
2019-03-21T19:06:48.763Z,53.65
2019-03-21T19:09:17.467Z,53.94
2019-03-21T19:11:45.783Z,53.84
2019-03-21T19:14:14.136Z,54.01
2019-03-21T19:16:42.454Z,54.88
2019-03-21T19:19:11.097Z,55.31
2019-03-21T19:21:39.423Z,55.13
2019-03-21T19:24:07.839Z,55.58
2019-03-21T19:26:36.146Z,56.32
2019-03-21T19:29:04.833Z,56.23
2019-03-21T19:31:33.141Z,55.27
2019-03-21T19:34:01.536Z,55.03
2019-03-21T19:36:29.839Z,54.13
2019-03-21T19:38:58.241Z,54.00
2019-03-21T19:41:26.538Z,54.30
2019-03-21T19:43:54.843Z,55.36
2019-03-21T19:46:23.234Z,56.54
2019-03-21T19:48:51.532Z,55.38
2019-03-21T19:51:19.977Z,54.80
2019-03-21T19:53:48.302Z,54.23
2019-03-21T19:56:17.369Z,53.85
2019-03-21T19:58:45.694Z,54.50
2019-03-21T20:01:14.006Z,53.90
2019-03-21T20:03:42.782Z,54.42
2019-03-21T20:06:11.470Z,53.88
2019-03-21T20:08:39.807Z,54.42
2019-03-21T20:11:08.123Z,55.70
2019-03-21T20:13:36.505Z,56.03
2019-03-21T20:16:05.354Z,55.93
2019-03-21T20:18:33.660Z,57.48
2019-03-21T20:21:02.066Z,59.61
2019-03-21T20:23:30.558Z,61.05
2019-03-21T20:25:58.877Z,62.99
2019-03-21T20:28:27.179Z,63.62
2019-03-21T20:30:55.562Z,65.66
2019-03-21T20:33:23.933Z,67.13
2019-03-21T20:35:52.301Z,67.79
2019-03-21T20:38:20.623Z,68.87
2019-03-21T20:40:48.915Z,69.51
2019-03-21T20:43:17.608Z,70.61
2019-03-21T20:45:45.901Z,70.75
2019-03-21T20:48:14.675Z,71.66
2019-03-21T20:50:43.169Z,72.21
2019-03-21T20:53:11.554Z,72.73
2019-03-21T20:55:39.866Z,73.03
2019-03-21T20:58:08.310Z,73.52
2019-03-21T21:00:38.165Z,73.85
2019-03-21T21:03:06.573Z,74.79
2019-03-21T21:05:34.925Z,75.36
2019-03-21T21:08:03.234Z,74.85
2019-03-21T21:10:31.604Z,76.22
2019-03-21T21:13:00.138Z,76.29
2019-03-21T21:15:28.455Z,76.61
2019-03-21T21:17:56.999Z,76.72
2019-03-21T21:20:25.592Z,76.92
2019-03-21T21:22:53.899Z,77.61
2019-03-21T21:25:22.272Z,78.40
2019-03-21T21:27:50.744Z,78.82
2019-03-21T21:30:20.944Z,79.81
2019-03-21T21:32:49.406Z,79.92
2019-03-21T21:35:17.785Z,79.40
2019-03-21T21:37:46.329Z,77.11
2019-03-21T21:40:16.743Z,75.47
2019-03-21T21:42:45.385Z,75.54
2019-03-21T21:45:16.147Z,74.59
2019-03-21T21:47:44.878Z,76.15
2019-03-21T21:50:17.521Z,77.07
2019-03-21T21:52:45.821Z,77.42
2019-03-21T21:55:14.491Z,77.69
2019-03-21T21:57:42.858Z,78.46
2019-03-21T22:00:23.226Z,78.38
2019-03-21T22:02:51.936Z,78.43
2019-03-21T22:05:20.337Z,79.13
2019-03-21T22:07:48.714Z,79.93
2019-03-21T22:10:17.276Z,81.07
2019-03-21T22:12:45.597Z,81.79
2019-03-21T22:15:17.161Z,82.41
2019-03-21T22:17:45.545Z,83.15
2019-03-21T22:20:17.769Z,83.36
2019-03-21T22:22:46.283Z,84.16
2019-03-21T22:25:14.961Z,84.21
2019-03-21T22:27:43.411Z,86.30
2019-03-21T22:30:16.799Z,86.62
2019-03-21T22:32:45.102Z,87.11
2019-03-21T22:35:13.707Z,87.56
2019-03-21T22:37:42.083Z,88.98
2019-03-21T22:40:16.710Z,89.33
2019-03-21T22:42:45.101Z,89.84
2019-03-21T22:45:17.258Z,91.78
2019-03-21T22:47:45.669Z,91.96
2019-03-21T22:50:17.387Z,91.96
2019-03-21T22:52:46.670Z,92.61
2019-03-21T22:55:15.604Z,92.88
2019-03-21T22:57:44.198Z,93.72
2019-03-21T23:00:20.500Z,93.60
2019-03-21T23:02:48.920Z,95.03
2019-03-21T23:05:17.580Z,95.53
2019-03-21T23:07:45.947Z,96.42
2019-03-21T23:10:14.801Z,96.50
2019-03-21T23:12:43.374Z,97.93
2019-03-21T23:15:13.612Z,98.77
2019-03-21T23:17:42.041Z,98.73
2019-03-21T23:20:12.368Z,99.33
2019-03-21T23:22:40.680Z,99.61
2019-03-21T23:25:10.116Z,100.00
2019-03-21T23:27:38.504Z,99.34
2019-03-21T23:30:17.926Z,100.00
2019-03-21T23:32:46.709Z,99.04
2019-03-21T23:35:15.411Z,99.86
2019-03-21T23:37:43.899Z,100.00
2019-03-21T23:40:14.222Z,100.00
2019-03-21T23:42:42.516Z,100.00
2019-03-21T23:45:12.518Z,100.00
2019-03-21T23:47:40.816Z,100.00
2019-03-21T23:50:11.772Z,100.00
2019-03-21T23:52:40.072Z,100.00
2019-03-21T23:55:09.252Z,100.00
2019-03-21T23:57:37.616Z,100.00
